• Join FlightAware (Why Join?)
  • Login
  • US Flag 
08:37AM EDT


 

Airport Tracker/Info


-or-


 

Live Flight TrackerFlight Track Log ✈ SAS4023 ✈ 10-May-2013 ✈ ENGM / OSL - ENZV / SVG

Flight Track Log - Related Links

Times and Time Zones

All times are in EDT time to prevent confusion due to time zone crossing. See the SAS4023 flight status page for this flight to view local times or setup timezone preferences in your user account.

Time Position Orientation Groundspeed Altitude Reporting Facility
EDT Latitude Longitude Course Direction KTS MPH feet Rate Location/Type
05:48AM 60.1890 11.0760 180° South 143 165 1,100  Level FlightAware
05:48AM 60.1790 11.0710 194° South 142 163 1,700 2,520 Climbing FlightAware
05:48AM 60.1670 11.0610 203° Southwest 147 169 2,600 2,400 Climbing FlightAware
05:49AM 60.1620 11.0420 242° Southwest 169 194 3,100 2,220 Climbing FlightAware
05:49AM 60.1540 11.0090 244° Southwest 200 230 3,900 2,820 Climbing FlightAware
05:50AM 60.1420 10.9460 249° West 236 272 5,700 3,480 Climbing FlightAware
05:50AM 60.1400 10.8930 266° West 252 290 7,400 4,080 Climbing FlightAware
05:50AM 60.1390 10.8690 265° West 257 296 8,100 3,660 Climbing FlightAware
05:51AM 60.1330 10.7410 265° West 300 345 11,100 3,600 Climbing FlightAware
05:52AM 60.1280 10.6380 264° West 321 369 13,200 3,720 Climbing FlightAware
05:53AM 60.1210 10.4560 266° West 342 394 17,000 3,600 Climbing FlightAware
05:53AM 60.1260 10.3080 274° West 363 418 19,500 3,300 Climbing FlightAware
05:54AM 60.1330 10.1890 277° West 373 429 21,400 3,120 Climbing FlightAware
05:55AM 60.1390 9.9970 274° West 385 443 24,200 2,880 Climbing FlightAware
05:56AM 60.1420 9.8190 272° West 388 447 26,500 2,700 Climbing FlightAware
05:56AM 60.1240 9.6990 253° West 380 437 28,100 2,820 Climbing FlightAware
05:57AM 60.0810 9.5350 242° Southwest 369 425 30,800 2,220 Climbing FlightAware
05:58AM 60.0400 9.3830 242° Southwest 367 422 32,000 840 Climbing FlightAware
05:59AM 60.0130 9.2790 243° Southwest 371 427 32,000  Level FlightAware
06:00AM 59.9680 9.1110 242° Southwest 373 429 32,000  Level FlightAware
06:00AM 59.9270 8.9610 241° Southwest 372 428 32,000  Level FlightAware
06:01AM 59.8980 8.8530 242° Southwest 372 428 32,000  Level FlightAware
06:02AM 59.8540 8.6910 242° Southwest 374 430 32,000  Level FlightAware
06:03AM 59.8120 8.5380 241° Southwest 376 433 32,000  Level FlightAware
06:03AM 59.7820 8.4330 240° Southwest 376 433 32,000  Level FlightAware
06:04AM 59.7460 8.2990 242° Southwest 377 434 32,000 -1,020 Level FlightAware
06:05AM 59.7060 8.1550 241° Southwest 378 435 30,500 -1,500 Descending FlightAware
06:05AM 59.6710 8.0330 240° Southwest 377 434 29,900 -1,380 Descending FlightAware
06:06AM 59.6330 7.8970 241° Southwest 372 428 28,600 -1,980 Descending FlightAware
06:07AM 59.6000 7.7760 242° Southwest 362 417 27,100 -2,160 Descending FlightAware
06:08AM 59.5560 7.6220 241° Southwest 352 405 25,200 -2,040 Descending FlightAware
06:09AM 59.5210 7.4990 241° Southwest 343 395 23,700 -1,980 Descending FlightAware
06:09AM 59.4910 7.3890 242° Southwest 340 391 22,400 -2,040 Descending FlightAware
06:10AM 59.4610 7.2810 241° Southwest 336 387 21,000 -1,980 Descending FlightAware
06:11AM 59.4280 7.1610 242° Southwest 332 382 19,600 -1,800 Descending FlightAware
06:11AM 59.3990 7.0560 242° Southwest 326 375 18,500 -1,800 Descending FlightAware
06:12AM 59.3710 6.9540 242° Southwest 325 374 17,200 -1,920 Descending FlightAware
06:13AM 59.3390 6.8390 241° Southwest 322 371 15,800 -1,860 Descending FlightAware
06:13AM 59.3100 6.7360 241° Southwest 316 364 14,600 -1,920 Descending FlightAware
06:14AM 59.2820 6.6360 241° Southwest 310 357 13,300 -1,860 Descending FlightAware
06:15AM 59.2520 6.5320 241° Southwest 306 352 12,000 -1,800 Descending FlightAware
06:16AM 59.2210 6.4210 241° Southwest 297 342 10,600 -1,440 Descending FlightAware
06:16AM 59.1980 6.3150 247° West 273 314 9,900 -1,140 Descending FlightAware
06:17AM 59.1870 6.2580 249° West 267 307 9,300 -1,440 Descending FlightAware
06:17AM 59.1730 6.1910 248° West 261 300 8,600 -1,440 Descending FlightAware
06:18AM 59.1620 6.1390 248° West 257 296 8,000 -1,440 Descending FlightAware
06:18AM 59.1490 6.0740 249° West 254 292 7,300 -1,440 Descending FlightAware
06:19AM 59.1380 6.0180 249° West 255 293 6,700 -1,440 Descending FlightAware
06:19AM 59.1250 5.9540 248° West 255 293 6,000 -1,200 Descending FlightAware
06:20AM 59.1110 5.8910 247° West 245 282 5,500 -900 Descending FlightAware
06:20AM 59.1050 5.8740 236° Southwest 236 272 5,400 -600 Descending FlightAware
06:20AM 59.0850 5.8320 227° Southwest 219 252 5,100 -600 Descending FlightAware
06:21AM 59.0650 5.7900 227° Southwest 206 237 4,800 -600 Descending FlightAware
06:21AM 59.0490 5.7550 228° Southwest 202 232 4,600 -780 Descending FlightAware
06:22AM 59.0380 5.7030 248° West 205 236 4,100 -1,080 Descending FlightAware
06:22AM 59.0340 5.6790 252° West 199 229 3,800 -1,080 Descending FlightAware
06:22AM 59.0270 5.6470 247° West 181 208 3,500 -1,200 Descending FlightAware
06:23AM 59.0140 5.6340 207° Southwest 150 173 3,000 -1,440 Descending FlightAware
06:23AM 58.9930 5.6340 180° South 144 166 2,300 -1,140 Descending FlightAware
06:23AM 58.9760 5.6350 178° South 146 168 2,000 -720 Descending FlightAware
06:24AM 58.9610 5.6360 178° South 146 168 1,700 -780 Descending FlightAware
06:24AM 58.9420 5.6350 182° South 128 147 1,300 -720 Descending FlightAware
06:25AM 58.9300 5.6360 178° South 126 145 1,100 -660 Descending FlightAware
06:25AM 58.9080 5.6370 179° South 131 151 700 -780 Descending FlightAware
06:26AM 58.8920 5.6370 180° South 131 151 300 -840 Descending FlightAware